Terminal Aerodrome Forecast
Issued by NWS

Home | Current Version | Previous Version | Text Only | Print | Product List | Glossary On
Versions: 1 2 3 4 5 6 7 8 9 10 11 12 13
000
FTUS41 KPBZ 170531
TAFFKL
TAF
KFKL 170531Z 1706/1806 11006KT P6SM VCSH OVC008
     FM171000 13005KT 2SM -RA BR OVC008
     FM171500 17008KT 3SM -RA BR OVC003 WS020/19035KT
     FM172100 23008G18KT P6SM -SHRA OVC003
      AMD NOT SKED=

USA.gov is the U.S. government's official web portal to all federal, state and local government web resources and services.